Time;durP1;ratioP1;P1;durP2;ratioP2;P2;SDS_P1;SDS_P2;PMS_P1;PMS_P2;Temp;Humidity;BMP_temperature;BMP_pressure;BME280_temperature;BME280_humidity;BME280_pressure;Samples;Min_cycle;Max_cycle;Signal;HPM_P1;HPM_P2
2021/05/27 00:00:23;;;;;;;;;;;;;;;15.75;100.00;93035.47;5071707;28;19924;-85
2021/05/27 00:02:49;;;;;;;;;;;;;;;15.67;100.00;93035.94;5072170;28;20043;-85
2021/05/27 00:05:15;;;;;;;;;;;;;;;15.65;100.00;93029.44;5071856;28;19931;-85
2021/05/27 00:07:41;;;;;;;;;;;;;;;15.45;100.00;93010.88;5071891;28;19920;-85
2021/05/27 00:10:09;;;;;;;;;;;;;;;15.52;100.00;93026.22;5071717;28;19921;-85
2021/05/27 00:12:35;;;;;;;;;;;;;;;15.50;100.00;93026.47;5071571;28;19920;-85
2021/05/27 00:15:02;;;;;;;;;;;;;;;15.46;100.00;93019.44;5071601;28;19925;-85
2021/05/27 00:17:28;;;;;;;;;;;;;;;15.50;100.00;93021.28;5065287;28;19920;-85
2021/05/27 00:19:54;;;;;;;;;;;;;;;15.55;100.00;93017.97;5051633;28;19921;-85
2021/05/27 00:22:20;;;;;;;;;;;;;;;15.59;100.00;93021.63;5051439;28;19944;-85
2021/05/27 00:24:46;;;;;;;;;;;;;;;15.25;100.00;92971.88;5050330;28;19921;-85
2021/05/27 00:27:13;;;;;;;;;;;;;;;15.57;100.00;93026.28;5051551;28;19921;-85
2021/05/27 00:29:39;;;;;;;;;;;;;;;15.57;100.00;93030.66;5051397;28;20372;-85
2021/05/27 00:32:06;;;;;;;;;;;;;;;15.60;100.00;93033.53;5050368;28;19966;-85
2021/05/27 00:34:32;;;;;;;;;;;;;;;15.61;100.00;93049.88;5051440;28;19971;-84
2021/05/27 00:36:58;;;;;;;;;;;;;;;15.62;100.00;93051.44;5051346;28;19921;-85
2021/05/27 00:39:24;;;;;;;;;;;;;;;15.63;100.00;93047.81;5051560;28;20272;-85
2021/05/27 00:41:50;;;;;;;;;;;;;;;15.68;100.00;93052.25;5051289;28;19925;-85
2021/05/27 00:44:22;;;;;;;;;;;;;;;15.70;100.00;93050.22;5051316;28;19947;-84
2021/05/27 00:46:48;;;;;;;;;;;;;;;15.74;100.00;93048.69;5051195;28;19921;-84
2021/05/27 00:49:14;;;;;;;;;;;;;;;15.80;100.00;93049.50;5050903;28;19967;-85
2021/05/27 00:51:40;;;;;;;;;;;;;;;15.82;100.00;93057.81;5050943;28;19925;-85
2021/05/27 00:54:07;;;;;;;;;;;;;;;15.83;100.00;93049.78;5050867;28;19921;-85
2021/05/27 00:56:33;;;;;;;;;;;;;;;15.86;100.00;93045.94;5050632;28;19920;-87
2021/05/27 00:58:59;;;;;;;;;;;;;;;15.86;100.00;93054.50;5050803;28;19925;-86
2021/05/27 01:01:26;;;;;;;;;;;;;;;15.89;100.00;93035.84;5050889;28;19920;-87
2021/05/27 01:03:52;;;;;;;;;;;;;;;15.88;100.00;93026.53;5050771;28;20024;-87
2021/05/27 01:06:18;;;;;;;;;;;;;;;15.85;100.00;93008.91;5050551;28;19979;-86
2021/05/27 01:08:44;;;;;;;;;;;;;;;15.80;100.00;92995.91;5050734;28;19943;-86
2021/05/27 01:11:11;;;;;;;;;;;;;;;15.77;100.00;92988.63;5050826;28;19925;-86
2021/05/27 01:13:37;;;;;;;;;;;;;;;15.77;100.00;92991.22;5050507;28;19966;-86
2021/05/27 01:16:03;;;;;;;;;;;;;;;15.77;100.00;92999.78;5050566;28;19925;-89
2021/05/27 01:18:30;;;;;;;;;;;;;;;15.76;100.00;92998.22;5050671;28;19955;-90
2021/05/27 01:20:57;;;;;;;;;;;;;;;15.76;100.00;92993.06;5050577;28;19920;-91
2021/05/27 01:23:25;;;;;;;;;;;;;;;15.77;100.00;92992.00;5050025;28;20046;-90
2021/05/27 01:25:53;;;;;;;;;;;;;;;15.77;100.00;92981.66;5050712;28;19983;-90
2021/05/27 01:28:19;;;;;;;;;;;;;;;15.74;100.00;92971.78;5050142;28;20447;-90
2021/05/27 01:30:46;;;;;;;;;;;;;;;15.65;100.00;92973.28;5050435;28;19974;-89
2021/05/27 01:33:13;;;;;;;;;;;;;;;15.63;100.00;92973.53;5050235;28;20410;-90
2021/05/27 01:35:39;;;;;;;;;;;;;;;15.61;100.00;92980.72;5050029;28;20406;-89
2021/05/27 01:38:12;;;;;;;;;;;;;;;15.66;100.00;92979.22;5050012;28;19920;-89
2021/05/27 01:43:23;;;;;;;;;;;;;;;15.63;100.00;92978.69;5051178;28;19948;-90
2021/05/27 01:45:50;;;;;;;;;;;;;;;15.69;100.00;92979.50;5050534;28;20402;-90
2021/05/27 01:48:16;;;;;;;;;;;;;;;15.70;100.00;92981.06;5050801;28;19924;-90
2021/05/27 01:50:43;;;;;;;;;;;;;;;15.69;100.00;92986.50;5049838;28;19920;-90
2021/05/27 01:53:09;;;;;;;;;;;;;;;15.70;100.00;92994.00;5049796;28;19921;-91
2021/05/27 01:55:39;;;;;;;;;;;;;;;15.72;100.00;92989.38;5050272;28;20012;-91
2021/05/27 01:58:06;;;;;;;;;;;;;;;15.80;100.00;92997.72;5049996;28;19927;-90
2021/05/27 02:00:32;;;;;;;;;;;;;;;15.84;100.00;92996.97;5049877;28;19920;-90
2021/05/27 02:02:58;;;;;;;;;;;;;;;15.86;100.00;93007.88;5049822;28;20435;-90
2021/05/27 02:05:25;;;;;;;;;;;;;;;15.90;100.00;93008.16;5050229;28;19925;-87
2021/05/27 02:07:51;;;;;;;;;;;;;;;15.96;100.00;93007.19;5050057;28;19966;-90
2021/05/27 02:10:17;;;;;;;;;;;;;;;16.00;100.00;92999.72;5049656;28;19995;-88
2021/05/27 02:12:43;;;;;;;;;;;;;;;16.03;100.00;92997.41;5049882;28;20347;-90
2021/05/27 02:15:11;;;;;;;;;;;;;;;16.05;100.00;92996.41;5049893;28;19921;-91
2021/05/27 02:17:37;;;;;;;;;;;;;;;16.02;100.00;92988.06;5049960;28;19925;-87
2021/05/27 02:20:05;;;;;;;;;;;;;;;15.97;100.00;92987.28;5064880;28;19909;-88
2021/05/27 02:22:31;;;;;;;;;;;;;;;15.97;100.00;92977.66;5072565;28;19984;-89
2021/05/27 02:24:58;;;;;;;;;;;;;;;15.99;100.00;92985.19;5066299;28;19938;-89
2021/05/27 02:27:24;;;;;;;;;;;;;;;15.95;100.00;92987.50;5049216;28;20046;-88
2021/05/27 02:29:50;;;;;;;;;;;;;;;15.98;100.00;92994.00;5049723;28;20272;-88
2021/05/27 02:32:18;;;;;;;;;;;;;;;15.97;100.00;92993.22;5049721;28;19925;-89
2021/05/27 02:34:44;;;;;;;;;;;;;;;15.98;100.00;92994.78;5049177;28;19943;-88
2021/05/27 02:37:10;;;;;;;;;;;;;;;15.88;100.00;92999.88;5049640;28;19924;-88
2021/05/27 02:39:36;;;;;;;;;;;;;;;15.73;100.00;92990.94;5049643;28;19920;-86
2021/05/27 02:42:03;;;;;;;;;;;;;;;15.66;100.00;92992.97;5049203;28;19925;-89
2021/05/27 02:44:29;;;;;;;;;;;;;;;15.58;100.00;92983.84;5049291;28;19927;-88
2021/05/27 02:46:55;;;;;;;;;;;;;;;15.56;100.00;92987.69;5051652;28;19982;-86
2021/05/27 02:49:23;;;;;;;;;;;;;;;15.62;100.00;92987.50;5053452;28;19925;-87
2021/05/27 02:51:49;;;;;;;;;;;;;;;15.64;100.00;92992.41;5053463;28;19920;-87
2021/05/27 02:54:15;;;;;;;;;;;;;;;15.69;100.00;92981.34;5053356;28;20020;-87
2021/05/27 02:56:41;;;;;;;;;;;;;;;15.75;100.00;92982.94;5053027;28;19928;-87
2021/05/27 02:59:07;;;;;;;;;;;;;;;15.75;100.00;92983.69;5053287;28;19951;-87
2021/05/27 03:01:33;;;;;;;;;;;;;;;15.65;100.00;92986.22;5052994;28;19925;-87
2021/05/27 03:03:59;;;;;;;;;;;;;;;15.63;100.00;92991.66;5053221;28;19927;-87
2021/05/27 03:06:26;;;;;;;;;;;;;;;15.68;100.00;93005.63;5052837;28;19932;-87
2021/05/27 03:08:52;;;;;;;;;;;;;;;15.69;100.00;93012.41;5053526;28;20399;-87
2021/05/27 03:11:19;;;;;;;;;;;;;;;15.66;100.00;93003.31;5053624;28;19925;-88
2021/05/27 03:13:45;;;;;;;;;;;;;;;15.63;100.00;92996.03;5052880;28;19920;-88
2021/05/27 03:16:11;;;;;;;;;;;;;;;15.62;100.00;92997.84;5053054;28;20349;-89
2021/05/27 03:18:37;;;;;;;;;;;;;;;15.60;100.00;92994.72;5052549;28;19927;-89
2021/05/27 03:21:04;;;;;;;;;;;;;;;15.62;100.00;93003.03;5052798;28;20264;-90
2021/05/27 03:23:31;;;;;;;;;;;;;;;15.66;100.00;92994.75;5053368;28;19967;-90
2021/05/27 03:25:57;;;;;;;;;;;;;;;15.74;100.00;92996.91;5053412;28;19950;-89
2021/05/27 03:28:23;;;;;;;;;;;;;;;15.77;100.00;93002.38;5052480;28;19927;-90
2021/05/27 03:30:49;;;;;;;;;;;;;;;15.82;100.00;93006.00;5052727;28;19943;-91
2021/05/27 03:33:16;;;;;;;;;;;;;;;15.79;100.00;93004.72;5052666;28;19925;-90
2021/05/27 03:35:42;;;;;;;;;;;;;;;15.83;100.00;93010.19;5052444;28;20011;-90
2021/05/27 03:38:08;;;;;;;;;;;;;;;15.89;100.00;93015.13;5052484;28;20298;-92
2021/05/27 03:40:38;;;;;;;;;;;;;;;15.84;100.00;93012.50;5053176;28;19925;-92
2021/05/27 03:43:04;;;;;;;;;;;;;;;15.66;100.00;93021.44;5053086;28;19943;-91
2021/05/27 03:45:31;;;;;;;;;;;;;;;15.73;100.00;93010.88;5052553;28;19925;-89
2021/05/27 03:47:57;;;;;;;;;;;;;;;15.80;100.00;93013.25;5053080;28;19983;-89
2021/05/27 03:50:24;;;;;;;;;;;;;;;15.79;100.00;93004.72;5052613;28;19924;-89
2021/05/27 03:52:50;;;;;;;;;;;;;;;15.85;100.00;93005.53;5052722;28;20352;-89
2021/05/27 03:55:17;;;;;;;;;;;;;;;15.98;100.00;93012.91;5052162;28;20426;-89
2021/05/27 03:57:45;;;;;;;;;;;;;;;16.07;100.00;93004.69;5051496;28;19928;-89
2021/05/27 04:02:58;;;;;;;;;;;;;;;16.27;100.00;92996.25;5052601;28;20343;-88
2021/05/27 04:08:08;;;;;;;;;;;;;;;16.53;100.00;93004.19;5052390;28;19974;-87
2021/05/27 04:10:34;;;;;;;;;;;;;;;16.62;100.00;93012.28;5052590;28;20377;-88
2021/05/27 04:13:01;;;;;;;;;;;;;;;16.68;100.00;93013.84;5051673;28;20389;-88
2021/05/27 04:15:28;;;;;;;;;;;;;;;16.69;100.00;93016.19;5051741;28;19924;-89
2021/05/27 04:17:56;;;;;;;;;;;;;;;16.65;100.00;93014.34;5051726;28;19967;-89
2021/05/27 04:20:23;;;;;;;;;;;;;;;16.67;100.00;93020.06;5051642;28;19982;-87
2021/05/27 04:22:49;;;;;;;;;;;;;;;16.74;100.00;93020.63;5051588;28;19924;-88
2021/05/27 04:25:16;;;;;;;;;;;;;;;16.78;100.00;93019.09;5051430;28;19920;-87
2021/05/27 04:27:42;;;;;;;;;;;;;;;16.85;100.00;93018.84;5051486;28;20311;-88
2021/05/27 04:30:14;;;;;;;;;;;;;;;16.89;100.00;93027.69;5051841;28;19967;-88
2021/05/27 04:32:57;;;;;;;;;;;;;;;16.92;100.00;93034.19;5051888;28;19925;-88
2021/05/27 04:35:24;;;;;;;;;;;;;;;16.97;100.00;93026.44;5051412;28;20328;-88
2021/05/27 04:37:50;;;;;;;;;;;;;;;17.05;100.00;93023.38;5051107;28;19932;-88
2021/05/27 04:40:17;;;;;;;;;;;;;;;17.07;100.00;93031.69;5051158;28;20417;-87
2021/05/27 04:42:43;;;;;;;;;;;;;;;17.13;100.00;93026.50;5051164;28;20275;-86
2021/05/27 04:45:10;;;;;;;;;;;;;;;17.19;100.00;93026.28;5051005;28;19925;-85
2021/05/27 04:47:37;;;;;;;;;;;;;;;17.23;100.00;93016.94;5050932;28;19925;-89
2021/05/27 04:50:05;;;;;;;;;;;;;;;17.29;100.00;93011.75;5051107;28;19921;-86
2021/05/27 04:52:32;;;;;;;;;;;;;;;17.31;100.00;93012.28;5051261;28;20315;-85
2021/05/27 04:54:58;;;;;;;;;;;;;;;17.45;100.00;93002.19;5050758;28;19921;-86
2021/05/27 04:57:24;;;;;;;;;;;;;;;17.57;100.00;93012.31;5050725;28;19924;-87
2021/05/27 04:59:51;;;;;;;;;;;;;;;17.70;100.00;93005.84;5051102;28;19921;-86
2021/05/27 05:02:18;;;;;;;;;;;;;;;17.78;100.00;93005.34;5050685;28;19932;-86
2021/05/27 05:04:44;;;;;;;;;;;;;;;17.90;100.00;93002.47;5050824;28;19921;-87
2021/05/27 05:07:10;;;;;;;;;;;;;;;18.05;100.00;93004.28;5050511;28;19924;-87
2021/05/27 05:09:36;;;;;;;;;;;;;;;18.16;100.00;93007.69;5050088;28;19927;-87
2021/05/27 05:12:02;;;;;;;;;;;;;;;18.19;100.00;93001.19;5050621;28;19992;-87
2021/05/27 05:14:28;;;;;;;;;;;;;;;18.23;100.00;93005.59;5047210;28;19932;-87
2021/05/27 05:16:54;;;;;;;;;;;;;;;18.35;100.00;93005.34;5049770;28;19925;-87
2021/05/27 05:19:21;;;;;;;;;;;;;;;18.48;100.00;93009.22;5051254;28;19921;-88
2021/05/27 05:21:47;;;;;;;;;;;;;;;18.59;100.00;93004.75;5050897;28;19924;-85
2021/05/27 05:24:13;;;;;;;;;;;;;;;18.74;100.00;93006.53;5050893;28;19920;-86
2021/05/27 05:26:40;;;;;;;;;;;;;;;18.67;100.00;93001.63;5050913;28;19931;-87
2021/05/27 05:29:06;;;;;;;;;;;;;;;18.69;100.00;93006.53;5050047;28;20000;-87
2021/05/27 05:31:32;;;;;;;;;;;;;;;18.86;100.00;93008.03;5050316;28;20241;-90
2021/05/27 05:33:58;;;;;;;;;;;;;;;19.07;100.00;93017.38;5050047;28;19929;-86
2021/05/27 05:36:25;;;;;;;;;;;;;;;18.85;100.00;93017.69;5049711;28;19925;-86
2021/05/27 05:38:52;;;;;;;;;;;;;;;18.95;100.00;93022.06;5034776;28;19975;-86
2021/05/27 05:41:18;;;;;;;;;;;;;;;19.14;100.00;93014.47;5050022;28;19936;-87
2021/05/27 05:43:44;;;;;;;;;;;;;;;19.28;100.00;93019.88;5050007;28;19921;-88
2021/05/27 05:46:10;;;;;;;;;;;;;;;19.48;100.00;93023.41;5049901;28;19933;-86
2021/05/27 05:48:37;;;;;;;;;;;;;;;19.47;100.00;93025.25;5050001;28;19970;-86
2021/05/27 05:51:04;;;;;;;;;;;;;;;19.58;100.00;93028.56;5049596;28;19920;-86
2021/05/27 05:53:31;;;;;;;;;;;;;;;19.63;100.00;93035.59;5049646;28;19967;-86
2021/05/27 05:55:57;;;;;;;;;;;;;;;19.69;100.00;93034.50;5049657;28;19925;-87
2021/05/27 05:58:25;;;;;;;;;;;;;;;19.82;100.00;93035.72;5049594;28;19983;-88
2021/05/27 06:00:51;;;;;;;;;;;;;;;19.96;100.00;93029.88;5049804;28;19932;-87
2021/05/27 06:03:17;;;;;;;;;;;;;;;20.03;100.00;93030.38;5049889;28;20287;-87
2021/05/27 06:05:44;;;;;;;;;;;;;;;20.02;100.00;93034.03;5049522;28;19950;-88
2021/05/27 06:08:10;;;;;;;;;;;;;;;20.21;100.00;93026.31;5049843;28;19925;-88
2021/05/27 06:10:37;;;;;;;;;;;;;;;20.27;100.00;93029.66;5049793;28;19920;-88
2021/05/27 06:13:03;;;;;;;;;;;;;;;20.38;100.00;93023.31;5049516;28;19932;-88
2021/05/27 06:15:29;;;;;;;;;;;;;;;20.43;100.00;93025.06;5049695;28;19928;-88
2021/05/27 06:17:56;;;;;;;;;;;;;;;20.47;100.00;93022.69;5049804;28;19927;-88
2021/05/27 06:20:22;;;;;;;;;;;;;;;20.66;100.00;93020.94;5049435;28;19931;-88
2021/05/27 06:22:49;;;;;;;;;;;;;;;20.74;100.00;93027.34;5053094;28;19921;-87
2021/05/27 06:25:15;;;;;;;;;;;;;;;20.67;99.47;93024.31;5054035;28;19925;-88
2021/05/27 06:27:42;;;;;;;;;;;;;;;20.19;100.00;93019.81;5049595;28;20343;-88
2021/05/27 06:30:09;;;;;;;;;;;;;;;19.88;100.00;93020.81;5051863;28;20015;-87
2021/05/27 06:32:36;;;;;;;;;;;;;;;20.35;100.00;93010.78;5053421;28;19921;-86
2021/05/27 06:35:03;;;;;;;;;;;;;;;20.75;100.00;93015.09;5053229;28;19924;-87
2021/05/27 06:37:29;;;;;;;;;;;;;;;21.22;98.65;93012.75;5053388;28;20364;-86
2021/05/27 06:39:55;;;;;;;;;;;;;;;21.63;98.94;93024.50;5053119;28;20383;-88
2021/05/27 06:42:21;;;;;;;;;;;;;;;21.89;94.88;93026.75;5053434;28;19967;-88
2021/05/27 06:44:48;;;;;;;;;;;;;;;22.02;92.93;93026.03;5053571;28;19920;-87
2021/05/27 06:47:14;;;;;;;;;;;;;;;21.91;92.12;93014.19;5053625;28;19936;-88
2021/05/27 06:49:40;;;;;;;;;;;;;;;21.95;94.17;93025.63;5053127;28;19921;-88
2021/05/27 06:52:07;;;;;;;;;;;;;;;21.94;92.93;93028.53;5053147;28;19925;-88
2021/05/27 06:54:39;;;;;;;;;;;;;;;22.05;94.11;93016.06;5054275;28;19928;-88
2021/05/27 06:57:06;;;;;;;;;;;;;;;22.18;92.71;93017.94;5052856;28;19930;-88
2021/05/27 06:59:32;;;;;;;;;;;;;;;22.35;90.97;93021.84;5053702;28;19928;-88
2021/05/27 07:01:59;;;;;;;;;;;;;;;22.45;92.41;93023.50;5053108;28;20253;-88
2021/05/27 07:04:25;;;;;;;;;;;;;;;22.57;91.89;93018.63;5052878;28;19932;-86
2021/05/27 07:06:52;;;;;;;;;;;;;;;22.34;93.42;93012.44;5053030;28;20328;-87
2021/05/27 07:09:21;;;;;;;;;;;;;;;22.35;93.13;93020.00;5052932;28;19986;-87
2021/05/27 07:11:47;;;;;;;;;;;;;;;22.13;93.30;93010.94;5053653;28;20272;-86
2021/05/27 07:14:13;;;;;;;;;;;;;;;22.27;92.22;93010.97;5053137;28;19921;-86
2021/05/27 07:16:39;;;;;;;;;;;;;;;21.51;96.29;93006.63;5042139;28;19925;-87
2021/05/27 07:19:06;;;;;;;;;;;;;;;21.55;94.06;93004.22;5052914;28;19925;-86
2021/05/27 07:21:33;;;;;;;;;;;;;;;22.01;92.54;93002.78;5053499;28;20377;-87
2021/05/27 07:23:59;;;;;;;;;;;;;;;22.67;91.93;93000.09;5053512;28;20015;-86
2021/05/27 07:26:25;;;;;;;;;;;;;;;23.23;89.94;92999.28;5052471;28;19928;-86
2021/05/27 07:28:51;;;;;;;;;;;;;;;23.65;88.69;92996.56;5052741;28;19936;-86
2021/05/27 07:31:17;;;;;;;;;;;;;;;24.11;86.89;93000.00;5052808;28;19944;-86
2021/05/27 07:33:43;;;;;;;;;;;;;;;24.48;84.65;93001.75;5052225;28;19921;-85
2021/05/27 07:36:23;;;;;;;;;;;;;;;24.41;83.22;92994.28;5052510;28;19928;-85
2021/05/27 07:38:49;;;;;;;;;;;;;;;24.46;82.31;92993.38;5052695;28;20360;-85
2021/05/27 07:41:15;;;;;;;;;;;;;;;24.41;82.72;92984.56;5052967;28;20365;-86
2021/05/27 07:43:41;;;;;;;;;;;;;;;24.72;82.76;92988.25;5052717;28;20048;-87
2021/05/27 07:46:08;;;;;;;;;;;;;;;24.82;78.54;92997.72;5052979;28;19971;-86
2021/05/27 07:48:34;;;;;;;;;;;;;;;25.08;81.60;92989.13;5052912;28;19925;-86
2021/05/27 07:51:00;;;;;;;;;;;;;;;25.24;77.70;92989.47;5053004;28;20053;-85
2021/05/27 07:53:30;;;;;;;;;;;;;;;24.64;79.86;92984.50;5052526;28;19927;-85
2021/05/27 07:55:56;;;;;;;;;;;;;;;24.84;80.42;92977.19;5053133;28;19964;-85
2021/05/27 07:58:22;;;;;;;;;;;;;;;24.92;79.02;92981.69;5052296;28;20281;-85
2021/05/27 08:00:48;;;;;;;;;;;;;;;25.15;79.26;92978.16;5052733;28;19920;-85
2021/05/27 08:03:32;;;;;;;;;;;;;;;24.72;78.90;92975.13;5052387;28;20390;-85
2021/05/27 08:05:58;;;;;;;;;;;;;;;25.40;80.67;92978.53;5052486;28;19975;-86
2021/05/27 08:08:24;;;;;;;;;;;;;;;25.31;77.98;92981.13;5051990;28;19931;-84
2021/05/27 08:10:54;;;;;;;;;;;;;;;24.80;79.82;92976.19;5051376;28;19925;-87
2021/05/27 08:13:20;;;;;;;;;;;;;;;25.34;78.01;92972.63;5051419;28;19943;-85
2021/05/27 08:15:47;;;;;;;;;;;;;;;25.61;76.74;92968.19;5051382;28;20430;-86
2021/05/27 08:18:13;;;;;;;;;;;;;;;25.58;76.93;92968.78;5051731;28;19927;-84
2021/05/27 08:20:39;;;;;;;;;;;;;;;25.99;77.53;92961.47;5051729;28;19921;-86
2021/05/27 08:23:06;;;;;;;;;;;;;;;25.90;75.33;92961.50;5053205;28;19921;-86
2021/05/27 08:25:32;;;;;;;;;;;;;;;25.33;74.54;92958.69;5051650;28;19921;-86
2021/05/27 08:27:59;;;;;;;;;;;;;;;25.13;77.61;92949.56;5051910;28;19921;-86
2021/05/27 08:30:25;;;;;;;;;;;;;;;25.15;74.89;92941.38;5051515;28;19921;-86
2021/05/27 08:32:52;;;;;;;;;;;;;;;24.93;74.37;92946.47;5051562;28;20344;-87
2021/05/27 08:35:18;;;;;;;;;;;;;;;25.11;75.86;92948.31;5051876;28;19932;-86
2021/05/27 08:37:44;;;;;;;;;;;;;;;25.57;73.50;92944.34;5051219;28;20257;-87
2021/05/27 08:40:11;;;;;;;;;;;;;;;25.61;73.17;92958.41;5051392;28;19925;-87
2021/05/27 08:42:37;;;;;;;;;;;;;;;25.70;73.00;92939.22;5051065;28;20292;-86
2021/05/27 08:45:08;;;;;;;;;;;;;;;25.42;71.08;92936.91;5050043;28;19921;-85
2021/05/27 08:47:34;;;;;;;;;;;;;;;25.82;68.05;92935.97;5051226;28;19921;-86
2021/05/27 08:50:01;;;;;;;;;;;;;;;25.61;70.67;92928.72;5051006;28;19931;-85
2021/05/27 08:52:27;;;;;;;;;;;;;;;25.43;73.48;92930.56;5051010;28;19921;-87
2021/05/27 08:54:53;;;;;;;;;;;;;;;25.53;70.44;92925.00;5051074;28;20028;-85
2021/05/27 08:57:19;;;;;;;;;;;;;;;25.98;69.02;92923.09;5050670;28;20380;-85
2021/05/27 08:59:45;;;;;;;;;;;;;;;25.75;69.86;92918.03;5050710;28;19920;-86
2021/05/27 09:02:16;;;;;;;;;;;;;;;25.89;71.12;92915.22;5050883;28;19920;-87
2021/05/27 09:04:42;;;;;;;;;;;;;;;26.06;68.17;92918.88;5051451;28;19925;-85
2021/05/27 09:07:09;;;;;;;;;;;;;;;26.37;67.56;92907.34;5050555;28;19925;-86
2021/05/27 09:09:47;;;;;;;;;;;;;;;26.59;67.45;92913.44;5051417;28;20011;-87
2021/05/27 09:12:31;;;;;;;;;;;;;;;26.68;70.63;92906.25;5051238;28;20453;-87
2021/05/27 09:14:58;;;;;;;;;;;;;;;26.33;67.78;92906.44;5050635;28;20043;-87
2021/05/27 09:17:26;;;;;;;;;;;;;;;26.50;68.47;92909.00;5051162;28;20011;-87
2021/05/27 09:20:16;;;;;;;;;;;;;;;26.47;65.87;92906.97;5051601;28;19921;-86
2021/05/27 09:23:06;;;;;;;;;;;;;;;26.94;69.01;92919.31;5041980;28;19974;-88
2021/05/27 09:25:36;;;;;;;;;;;;;;;26.74;66.36;92909.50;5045563;28;19928;-86
2021/05/27 09:28:02;;;;;;;;;;;;;;;26.78;66.38;92905.91;5041899;28;19963;-87
2021/05/27 09:30:29;;;;;;;;;;;;;;;27.02;65.37;92899.25;5040476;28;19937;-86
2021/05/27 09:33:09;;;;;;;;;;;;;;;27.53;67.23;92897.63;5033922;28;19925;-87
2021/05/27 09:35:41;;;;;;;;;;;;;;;28.06;65.85;92894.47;5041374;28;20643;-88
2021/05/27 09:38:11;;;;;;;;;;;;;;;28.43;64.83;92883.97;5039191;28;19927;-89
2021/05/27 09:40:40;;;;;;;;;;;;;;;28.87;63.46;92883.41;5040217;28;19920;-87
2021/05/27 09:43:16;;;;;;;;;;;;;;;28.71;56.87;92883.31;5041418;28;19921;-87
2021/05/27 09:45:43;;;;;;;;;;;;;;;28.70;56.19;92878.34;5040971;28;19921;-87
2021/05/27 09:48:26;;;;;;;;;;;;;;;28.24;59.37;92874.72;5038954;28;19979;-87
2021/05/27 09:50:55;;;;;;;;;;;;;;;27.90;57.50;92881.16;5039461;28;19921;-87
2021/05/27 09:53:27;;;;;;;;;;;;;;;28.03;58.52;92877.44;5043657;28;19975;-88
2021/05/27 09:55:56;;;;;;;;;;;;;;;28.39;55.95;92867.25;5064521;28;19925;-88
2021/05/27 09:58:27;;;;;;;;;;;;;;;28.06;55.56;92866.22;5050493;28;19925;-89
2021/05/27 10:01:13;;;;;;;;;;;;;;;28.65;56.46;92856.31;5041617;28;19921;-91
2021/05/27 10:06:39;;;;;;;;;;;;;;;28.46;57.05;92856.88;5029121;28;20016;-88
2021/05/27 10:09:11;;;;;;;;;;;;;;;28.83;56.05;92858.72;5038272;28;19921;-89
2021/05/27 10:11:46;;;;;;;;;;;;;;;28.77;56.37;92862.69;5039709;28;19921;-92
2021/05/27 10:14:26;;;;;;;;;;;;;;;28.74;57.74;92858.09;5030461;28;20327;-93
2021/05/27 10:17:01;;;;;;;;;;;;;;;28.54;56.41;92863.94;5036622;28;19970;-91
2021/05/27 10:19:39;;;;;;;;;;;;;;;28.23;57.48;92859.97;5036864;28;20023;-91
2021/05/27 10:22:18;;;;;;;;;;;;;;;28.08;56.90;92853.47;5037330;28;19939;-91
2021/05/27 10:24:56;;;;;;;;;;;;;;;27.94;58.96;92858.28;5034221;28;19963;-91
2021/05/27 10:27:30;;;;;;;;;;;;;;;27.52;56.87;92853.84;5032572;28;19974;-90
2021/05/27 10:30:06;;;;;;;;;;;;;;;27.46;59.98;92843.50;5030334;28;19944;-90
2021/05/27 10:32:41;;;;;;;;;;;;;;;27.55;61.37;92835.53;5042460;28;19920;-90
2021/05/27 10:35:21;;;;;;;;;;;;;;;27.50;59.88;92835.75;5050094;28;20338;-90
2021/05/27 10:37:57;;;;;;;;;;;;;;;27.40;62.56;92829.00;5050072;28;20310;-90
2021/05/27 10:40:46;;;;;;;;;;;;;;;27.40;62.71;92826.34;5050023;28;19925;-90
2021/05/27 10:43:20;;;;;;;;;;;;;;;27.29;62.11;92828.63;5046593;28;19921;-91
2021/05/27 10:46:08;;;;;;;;;;;;;;;27.27;61.47;92833.47;5049944;28;19931;-90
2021/05/27 10:49:03;;;;;;;;;;;;;;;27.13;62.70;92840.88;5046017;28;20012;-90
2021/05/27 10:51:44;;;;;;;;;;;;;;;26.97;64.25;92836.19;5047208;28;19947;-91
2021/05/27 10:54:18;;;;;;;;;;;;;;;26.82;63.29;92848.06;5050764;28;20281;-91
2021/05/27 10:56:52;;;;;;;;;;;;;;;26.73;65.83;92850.75;5053025;28;19921;-91
2021/05/27 10:59:26;;;;;;;;;;;;;;;26.61;65.70;92837.50;5069995;28;19921;-91
2021/05/27 11:02:02;;;;;;;;;;;;;;;26.58;66.45;92848.69;5057269;28;20015;-91
2021/05/27 11:04:40;;;;;;;;;;;;;;;26.47;66.00;92843.78;5049437;28;19927;-91
2021/05/27 11:07:23;;;;;;;;;;;;;;;26.49;66.74;92841.63;5049559;28;19932;-90
2021/05/27 11:09:56;;;;;;;;;;;;;;;26.36;62.31;92838.13;5067613;28;20268;-91
2021/05/27 11:12:42;;;;;;;;;;;;;;;26.09;64.42;92836.66;5073463;28;19920;-91
2021/05/27 11:15:20;;;;;;;;;;;;;;;25.76;63.00;92832.75;5073231;28;19946;-92
2021/05/27 11:18:20;;;;;;;;;;;;;;;25.19;63.20;92816.91;5072914;28;19928;-88
2021/05/27 11:20:48;;;;;;;;;;;;;;;24.82;65.27;92827.00;5074362;28;19952;-91
2021/05/27 11:23:24;;;;;;;;;;;;;;;24.51;66.70;92818.13;5075047;28;19928;-91
2021/05/27 11:25:59;;;;;;;;;;;;;;;24.74;66.94;92819.84;5073167;28;19921;-89
2021/05/27 11:28:32;;;;;;;;;;;;;;;24.88;67.83;92825.75;5072702;28;20289;-90
2021/05/27 11:30:59;;;;;;;;;;;;;;;24.98;68.25;92826.53;5072714;28;19924;-89
2021/05/27 11:33:33;;;;;;;;;;;;;;;25.07;66.28;92827.28;5072827;28;19925;-90
2021/05/27 11:36:02;;;;;;;;;;;;;;;25.09;69.45;92820.63;5073346;28;19924;-88
2021/05/27 11:38:33;;;;;;;;;;;;;;;25.05;71.10;92811.81;5073180;28;19921;-88
2021/05/27 11:41:00;;;;;;;;;;;;;;;25.04;73.43;92812.16;5073066;28;19963;-89
2021/05/27 11:43:26;;;;;;;;;;;;;;;25.04;75.60;92815.53;5072759;28;19924;-86
2021/05/27 11:45:54;;;;;;;;;;;;;;;24.97;75.66;92803.94;5065169;28;19932;-87
2021/05/27 11:48:24;;;;;;;;;;;;;;;24.96;77.28;92795.31;5052438;28;19930;-88
2021/05/27 11:50:50;;;;;;;;;;;;;;;25.01;76.32;92794.38;5052273;28;19946;-88
2021/05/27 11:53:19;;;;;;;;;;;;;;;25.11;77.24;92790.66;5052101;28;19931;-87
2021/05/27 11:55:52;;;;;;;;;;;;;;;25.10;77.93;92779.38;5055830;28;19971;-87
2021/05/27 11:58:32;;;;;;;;;;;;;;;25.09;77.65;92783.84;5072242;28;19924;-87
2021/05/27 12:00:58;;;;;;;;;;;;;;;25.10;78.57;92787.25;5071948;28;19920;-89
2021/05/27 12:03:24;;;;;;;;;;;;;;;25.10;78.32;92797.78;5071750;28;19928;-87
2021/05/27 12:05:57;;;;;;;;;;;;;;;25.12;78.36;92797.47;5071899;28;19924;-88
2021/05/27 12:08:23;;;;;;;;;;;;;;;25.16;77.91;92791.28;5071805;28;19971;-88
2021/05/27 12:10:51;;;;;;;;;;;;;;;25.19;77.45;92806.41;5072463;28;19931;-88
2021/05/27 12:13:18;;;;;;;;;;;;;;;25.21;77.57;92808.72;5071588;28;19920;-88
2021/05/27 12:15:45;;;;;;;;;;;;;;;25.13;78.49;92809.53;5073269;28;20283;-88
2021/05/27 12:18:12;;;;;;;;;;;;;;;25.07;78.77;92804.41;5050744;28;19924;-88
2021/05/27 12:20:39;;;;;;;;;;;;;;;24.98;79.52;92800.25;5042396;28;19927;-88
2021/05/27 12:23:06;;;;;;;;;;;;;;;25.04;80.57;92799.03;5041617;28;19963;-90
2021/05/27 12:25:33;;;;;;;;;;;;;;;24.95;80.85;92789.28;5041189;28;20390;-89
2021/05/27 12:28:00;;;;;;;;;;;;;;;24.87;80.30;92790.06;5042957;28;19928;-89
2021/05/27 12:30:28;;;;;;;;;;;;;;;24.76;80.46;92776.44;5040377;28;20360;-89
2021/05/27 12:32:55;;;;;;;;;;;;;;;24.73;80.01;92776.28;5050358;28;19925;-88
2021/05/27 12:35:23;;;;;;;;;;;;;;;24.70;80.46;92775.03;5050540;28;20386;-89
2021/05/27 12:37:49;;;;;;;;;;;;;;;24.75;81.47;92784.59;5050727;28;20283;-89
2021/05/27 12:40:24;;;;;;;;;;;;;;;24.71;79.90;92792.34;5052154;28;19970;-88
2021/05/27 12:42:51;;;;;;;;;;;;;;;24.56;79.98;92790.94;5051845;28;19925;-89
2021/05/27 12:45:38;;;;;;;;;;;;;;;24.45;80.10;92779.97;5052041;28;20011;-90
2021/05/27 12:48:09;;;;;;;;;;;;;;;24.45;81.16;92779.19;5045580;28;19925;-90
2021/05/27 12:50:36;;;;;;;;;;;;;;;24.49;81.37;92780.88;5051349;28;19925;-90
2021/05/27 12:53:03;;;;;;;;;;;;;;;24.37;80.96;92778.88;5050910;28;19932;-89
2021/05/27 12:55:30;;;;;;;;;;;;;;;24.17;79.78;92787.34;5051347;28;19920;-89
2021/05/27 12:57:59;;;;;;;;;;;;;;;23.95;75.50;92797.59;5050666;28;19921;-90